createdAt,value
2023-04-29T00:01:15.492Z,100.00
2023-04-29T00:03:43.159Z,100.00
2023-04-29T00:06:11.733Z,100.00
2023-04-29T00:08:38.548Z,100.00
2023-04-29T00:11:05.468Z,100.00
2023-04-29T00:13:32.452Z,100.00
2023-04-29T00:15:59.242Z,100.00
2023-04-29T00:18:26.081Z,100.00
2023-04-29T00:20:53.038Z,100.00
2023-04-29T00:23:20.017Z,100.00
2023-04-29T00:25:47.060Z,100.00
2023-04-29T00:28:14.049Z,100.00
2023-04-29T00:30:40.914Z,100.00
2023-04-29T00:33:07.957Z,100.00
2023-04-29T00:35:35.430Z,100.00
2023-04-29T00:38:02.133Z,100.00
2023-04-29T00:40:29.320Z,100.00
2023-04-29T00:42:57.239Z,100.00
2023-04-29T00:45:24.248Z,100.00
2023-04-29T00:47:52.812Z,100.00
2023-04-29T00:50:19.855Z,100.00
2023-04-29T00:52:47.471Z,100.00
2023-04-29T00:55:15.249Z,100.00
2023-04-29T00:57:42.689Z,100.00
2023-04-29T01:00:10.296Z,100.00
2023-04-29T01:02:37.949Z,100.00
2023-04-29T01:05:05.102Z,100.00
2023-04-29T01:07:38.648Z,100.00
2023-04-29T01:10:27.540Z,100.00
2023-04-29T01:13:18.365Z,100.00
2023-04-29T01:16:04.262Z,100.00
2023-04-29T01:18:37.732Z,100.00
2023-04-29T01:21:04.758Z,100.00
2023-04-29T01:23:31.900Z,100.00
2023-04-29T01:25:59.277Z,100.00
2023-04-29T01:28:48.842Z,100.00
2023-04-29T01:31:21.511Z,100.00
2023-04-29T01:34:10.906Z,100.00
2023-04-29T01:36:47.825Z,100.00
2023-04-29T01:39:18.397Z,100.00
2023-04-29T01:42:16.866Z,100.00
2023-04-29T01:44:44.019Z,100.00
2023-04-29T01:47:14.242Z,100.00
2023-04-29T01:49:46.976Z,100.00
2023-04-29T01:52:13.695Z,100.00
2023-04-29T01:54:43.558Z,100.00
2023-04-29T01:57:10.812Z,100.00
2023-04-29T01:59:49.282Z,100.00
2023-04-29T02:02:39.121Z,100.00
2023-04-29T02:05:16.572Z,100.00
2023-04-29T02:07:52.688Z,100.00
2023-04-29T02:10:19.787Z,100.00
2023-04-29T02:12:48.815Z,100.00
2023-04-29T02:15:17.758Z,100.00
2023-04-29T02:17:44.659Z,100.00
2023-04-29T02:20:11.985Z,100.00
2023-04-29T02:22:39.491Z,100.00
2023-04-29T02:25:07.315Z,100.00
2023-04-29T02:27:34.165Z,100.00
2023-04-29T02:30:00.910Z,100.00
2023-04-29T02:32:28.512Z,100.00
2023-04-29T02:34:55.285Z,100.00
2023-04-29T02:37:21.992Z,100.00
2023-04-29T02:39:49.023Z,100.00
2023-04-29T02:42:15.698Z,100.00
2023-04-29T02:44:42.691Z,100.00
2023-04-29T02:47:09.594Z,100.00
2023-04-29T02:49:36.311Z,100.00
2023-04-29T02:52:03.074Z,100.00
2023-04-29T02:54:31.876Z,100.00
2023-04-29T02:56:58.933Z,100.00
2023-04-29T02:59:25.754Z,100.00
2023-04-29T03:01:54.225Z,100.00
2023-04-29T03:04:21.032Z,100.00
2023-04-29T03:06:48.728Z,100.00
2023-04-29T03:09:15.702Z,100.00
2023-04-29T03:11:45.283Z,100.00
2023-04-29T03:14:12.589Z,100.00
2023-04-29T03:16:40.234Z,100.00
2023-04-29T03:19:07.355Z,100.00
2023-04-29T03:21:34.325Z,100.00
2023-04-29T03:24:01.244Z,100.00
2023-04-29T03:26:33.297Z,100.00
2023-04-29T03:29:00.167Z,100.00
2023-04-29T03:31:27.561Z,100.00
2023-04-29T03:33:54.497Z,100.00
2023-04-29T03:36:22.183Z,100.00
2023-04-29T03:39:01.659Z,100.00
2023-04-29T03:41:29.399Z,100.00
2023-04-29T03:44:00.707Z,100.00
2023-04-29T03:46:29.067Z,100.00
2023-04-29T03:48:58.737Z,100.00
2023-04-29T03:51:25.933Z,100.00
2023-04-29T03:53:59.081Z,100.00
2023-04-29T03:56:26.342Z,100.00
2023-04-29T03:58:53.515Z,100.00
2023-04-29T04:01:22.354Z,100.00
2023-04-29T04:03:49.659Z,100.00
2023-04-29T04:06:16.672Z,100.00
2023-04-29T04:08:43.833Z,100.00
2023-04-29T04:11:15.387Z,100.00
2023-04-29T04:13:45.943Z,100.00
2023-04-29T04:16:13.199Z,100.00
2023-04-29T04:18:40.236Z,100.00
2023-04-29T04:21:11.614Z,100.00
2023-04-29T04:23:41.257Z,100.00
2023-04-29T04:26:10.340Z,100.00
2023-04-29T04:28:52.635Z,100.00
2023-04-29T04:31:27.811Z,100.00
2023-04-29T04:33:54.605Z,100.00
2023-04-29T04:36:21.616Z,100.00
2023-04-29T04:38:48.537Z,100.00
2023-04-29T04:41:15.433Z,100.00
2023-04-29T04:43:44.528Z,100.00
2023-04-29T04:46:20.834Z,100.00
2023-04-29T04:49:07.819Z,100.00
2023-04-29T04:51:40.553Z,100.00
2023-04-29T04:54:07.508Z,100.00
2023-04-29T04:56:37.171Z,100.00
2023-04-29T04:59:05.373Z,100.00
2023-04-29T05:01:34.273Z,100.00
2023-04-29T05:04:02.743Z,100.00
2023-04-29T05:06:30.963Z,100.00
2023-04-29T05:08:57.893Z,100.00
2023-04-29T05:11:25.058Z,100.00
2023-04-29T05:14:07.685Z,100.00
2023-04-29T05:16:34.508Z,100.00
2023-04-29T05:19:01.478Z,100.00
2023-04-29T05:21:32.295Z,100.00
2023-04-29T05:24:00.023Z,100.00
2023-04-29T05:26:26.717Z,100.00
2023-04-29T05:28:57.078Z,100.00
2023-04-29T05:31:26.428Z,100.00
2023-04-29T05:33:53.457Z,100.00
2023-04-29T05:36:20.711Z,100.00
2023-04-29T05:38:47.493Z,100.00
2023-04-29T05:41:14.797Z,100.00
2023-04-29T05:43:59.415Z,100.00
2023-04-29T05:46:26.721Z,100.00
2023-04-29T05:48:54.124Z,100.00
2023-04-29T05:51:21.475Z,100.00
2023-04-29T05:53:49.256Z,100.00
2023-04-29T05:56:16.615Z,100.00
2023-04-29T05:58:43.549Z,100.00
2023-04-29T06:01:10.287Z,100.00
2023-04-29T06:03:37.525Z,100.00
2023-04-29T06:06:34.481Z,100.00
2023-04-29T06:09:27.466Z,100.00
2023-04-29T06:11:58.055Z,100.00
2023-04-29T06:14:27.206Z,100.00
2023-04-29T06:16:54.419Z,100.00
2023-04-29T06:19:25.195Z,100.00
2023-04-29T06:27:58.606Z,100.00
2023-04-29T06:30:28.480Z,100.00
2023-04-29T06:32:55.898Z,100.00
2023-04-29T06:35:25.418Z,100.00
2023-04-29T06:38:01.640Z,100.00
2023-04-29T06:40:38.379Z,100.00
2023-04-29T06:43:24.340Z,100.00
2023-04-29T06:46:10.699Z,100.00
2023-04-29T06:48:44.413Z,100.00
2023-04-29T06:51:11.245Z,100.00
2023-04-29T06:53:39.520Z,100.00
2023-04-29T06:56:06.993Z,100.00
2023-04-29T06:58:34.060Z,100.00
2023-04-29T07:01:01.040Z,100.00
2023-04-29T07:03:28.050Z,100.00
2023-04-29T07:05:54.870Z,100.00
2023-04-29T07:08:21.705Z,100.00
2023-04-29T07:10:56.670Z,100.00
2023-04-29T07:13:24.493Z,100.00
2023-04-29T07:15:51.754Z,100.00
2023-04-29T07:18:18.633Z,100.00
2023-04-29T07:20:46.081Z,100.00
2023-04-29T07:23:13.187Z,100.00
2023-04-29T07:25:41.197Z,100.00
2023-04-29T07:28:11.467Z,100.00
2023-04-29T07:30:40.920Z,100.00
2023-04-29T07:33:08.268Z,100.00
2023-04-29T07:35:35.077Z,100.00
2023-04-29T07:38:02.245Z,100.00
2023-04-29T07:40:31.238Z,100.00
2023-04-29T07:42:59.036Z,100.00
2023-04-29T07:45:26.712Z,100.00
2023-04-29T07:47:53.881Z,100.00
2023-04-29T07:50:21.048Z,100.00
2023-04-29T07:52:48.063Z,100.00
2023-04-29T07:55:17.171Z,100.00
2023-04-29T07:57:44.097Z,100.00
2023-04-29T08:00:12.378Z,100.00
2023-04-29T08:02:43.124Z,100.00
2023-04-29T08:05:13.552Z,100.00
2023-04-29T08:07:40.659Z,100.00
2023-04-29T08:10:08.013Z,100.00
2023-04-29T08:12:39.081Z,100.00
2023-04-29T08:15:09.745Z,100.00
2023-04-29T08:17:46.724Z,100.00
2023-04-29T08:20:13.877Z,100.00
2023-04-29T08:22:40.952Z,100.00
2023-04-29T08:25:08.731Z,100.00
2023-04-29T08:27:36.135Z,100.00
2023-04-29T08:30:03.169Z,100.00
2023-04-29T08:32:30.694Z,100.00
2023-04-29T08:34:57.899Z,100.00
2023-04-29T08:37:24.837Z,100.00
2023-04-29T08:39:51.491Z,100.00
2023-04-29T08:42:21.710Z,100.00
2023-04-29T08:44:49.689Z,100.00
2023-04-29T08:47:16.847Z,100.00
2023-04-29T08:49:43.726Z,100.00
2023-04-29T08:52:10.812Z,100.00
2023-04-29T08:54:37.658Z,100.00
2023-04-29T08:57:05.678Z,100.00
2023-04-29T08:59:32.681Z,100.00
2023-04-29T09:02:00.430Z,100.00
2023-04-29T09:04:30.906Z,100.00
2023-04-29T09:06:58.793Z,100.00
2023-04-29T09:09:26.550Z,100.00
2023-04-29T09:11:53.579Z,100.00
2023-04-29T09:14:20.841Z,100.00
2023-04-29T09:16:47.905Z,100.00
2023-04-29T09:19:34.529Z,100.00
2023-04-29T09:22:02.616Z,100.00
2023-04-29T09:24:31.619Z,100.00
2023-04-29T09:26:59.440Z,100.00
2023-04-29T09:29:26.535Z,100.00
2023-04-29T09:31:53.889Z,100.00
2023-04-29T09:34:38.403Z,100.00
2023-04-29T09:37:23.364Z,100.00
2023-04-29T09:39:50.656Z,100.00
2023-04-29T09:42:17.828Z,100.00
2023-04-29T09:44:45.801Z,100.00
2023-04-29T09:47:13.524Z,100.00
2023-04-29T09:49:42.764Z,100.00
2023-04-29T09:52:15.214Z,100.00
2023-04-29T09:54:43.698Z,100.00
2023-04-29T09:57:14.629Z,100.00
2023-04-29T09:59:42.118Z,100.00
2023-04-29T10:02:20.910Z,100.00
2023-04-29T10:04:54.809Z,100.00
2023-04-29T10:07:22.443Z,100.00
2023-04-29T10:09:49.334Z,100.00
2023-04-29T10:12:18.092Z,100.00
2023-04-29T10:14:51.612Z,100.00
2023-04-29T10:17:25.224Z,100.00
2023-04-29T10:20:07.648Z,100.00
2023-04-29T10:22:44.193Z,100.00
2023-04-29T10:25:12.366Z,100.00
2023-04-29T10:27:39.619Z,100.00
2023-04-29T10:30:07.895Z,100.00
2023-04-29T10:32:47.177Z,100.00
2023-04-29T10:35:23.614Z,100.00
2023-04-29T10:37:51.071Z,100.00
2023-04-29T10:40:23.211Z,100.00
2023-04-29T10:42:52.414Z,100.00
2023-04-29T10:45:22.918Z,100.00
2023-04-29T10:48:10.969Z,100.00
2023-04-29T10:50:47.048Z,100.00
2023-04-29T10:53:20.356Z,100.00
2023-04-29T10:55:48.688Z,100.00
2023-04-29T10:58:37.346Z,100.00
2023-04-29T11:01:04.628Z,100.00
2023-04-29T11:04:05.110Z,100.00
2023-04-29T11:06:38.354Z,100.00
2023-04-29T11:09:16.272Z,100.00
2023-04-29T11:17:37.883Z,100.00
2023-04-29T11:20:14.221Z,99.57
2023-04-29T11:22:41.305Z,100.00
2023-04-29T11:25:11.730Z,100.00
2023-04-29T11:27:40.324Z,99.94
2023-04-29T11:30:07.774Z,100.00
2023-04-29T11:32:43.006Z,100.00
2023-04-29T11:35:19.677Z,97.31
2023-04-29T11:37:47.610Z,96.71
2023-04-29T11:40:14.964Z,92.98
2023-04-29T11:42:49.384Z,97.98
2023-04-29T11:45:19.815Z,96.68
2023-04-29T11:47:48.081Z,95.75
2023-04-29T11:50:17.891Z,93.98
2023-04-29T11:52:46.753Z,97.14
2023-04-29T11:55:14.787Z,99.59
2023-04-29T11:57:41.865Z,100.00
2023-04-29T12:00:13.334Z,99.78
2023-04-29T12:02:45.184Z,96.26
2023-04-29T12:05:17.533Z,92.23
2023-04-29T12:07:44.796Z,92.20
2023-04-29T12:10:12.247Z,91.77
2023-04-29T12:12:46.825Z,93.22
2023-04-29T12:15:19.961Z,92.26
2023-04-29T12:17:47.687Z,95.35
2023-04-29T12:20:14.713Z,93.29
2023-04-29T12:22:43.824Z,90.30
2023-04-29T12:25:11.154Z,95.85
2023-04-29T12:27:41.567Z,96.27
2023-04-29T12:30:09.865Z,93.45
2023-04-29T12:32:37.336Z,93.69
2023-04-29T12:35:04.347Z,100.00
2023-04-29T12:37:33.465Z,98.66
2023-04-29T12:40:00.606Z,95.65
2023-04-29T12:42:33.722Z,94.64
2023-04-29T12:45:01.167Z,94.12
2023-04-29T12:47:33.899Z,96.40
2023-04-29T12:50:01.161Z,95.61
2023-04-29T12:52:27.929Z,94.89
2023-04-29T12:54:54.845Z,91.10
2023-04-29T12:57:23.058Z,91.99
2023-04-29T12:59:49.884Z,90.63
2023-04-29T13:02:16.747Z,88.77
2023-04-29T13:04:43.938Z,86.80
2023-04-29T13:07:11.026Z,88.38
2023-04-29T13:09:38.354Z,92.42
2023-04-29T13:12:05.719Z,95.27
2023-04-29T13:14:32.500Z,92.45
2023-04-29T13:16:59.339Z,91.82
2023-04-29T13:19:41.162Z,96.07
2023-04-29T13:22:13.691Z,95.68
2023-04-29T13:24:40.651Z,96.94
2023-04-29T13:27:07.495Z,95.88
2023-04-29T13:29:34.266Z,97.06
2023-04-29T13:32:01.270Z,95.53
2023-04-29T13:34:28.475Z,90.29
2023-04-29T13:36:55.236Z,94.59
2023-04-29T13:39:23.602Z,94.44
2023-04-29T13:41:51.029Z,96.13
2023-04-29T13:44:29.267Z,100.00
2023-04-29T13:47:01.707Z,97.36
2023-04-29T13:50:03.320Z,94.61
2023-04-29T13:53:01.455Z,94.20
2023-04-29T14:00:19.318Z,90.38
2023-04-29T14:05:23.502Z,88.74
2023-04-29T14:07:50.677Z,88.10
2023-04-29T14:10:17.590Z,90.01
2023-04-29T14:12:44.824Z,89.58
2023-04-29T14:15:12.366Z,92.35
2023-04-29T14:17:39.360Z,88.60
2023-04-29T14:20:07.002Z,98.79
2023-04-29T14:22:33.824Z,100.00
2023-04-29T14:25:00.694Z,94.25
2023-04-29T14:27:27.478Z,91.26
2023-04-29T14:29:54.478Z,90.72
2023-04-29T14:32:21.279Z,93.42
2023-04-29T14:34:48.442Z,89.11
2023-04-29T14:37:15.611Z,91.04
2023-04-29T14:39:42.445Z,92.55
2023-04-29T14:42:09.479Z,89.82
2023-04-29T14:44:36.464Z,85.90
2023-04-29T14:47:04.354Z,89.38
2023-04-29T14:49:31.779Z,90.04
2023-04-29T14:51:59.042Z,92.38
2023-04-29T14:54:27.209Z,93.79
2023-04-29T14:56:54.199Z,95.42
2023-04-29T14:59:21.170Z,89.99
2023-04-29T15:01:48.281Z,87.13
2023-04-29T15:04:16.134Z,84.52
2023-04-29T15:06:43.265Z,87.31
2023-04-29T15:09:10.675Z,84.03
2023-04-29T15:11:37.607Z,86.60
2023-04-29T15:14:04.429Z,89.44
2023-04-29T15:16:31.686Z,89.65
2023-04-29T15:18:59.102Z,90.13
2023-04-29T15:21:27.159Z,86.97
2023-04-29T15:23:54.482Z,86.09
2023-04-29T15:26:21.945Z,85.17
2023-04-29T15:28:49.410Z,88.13
2023-04-29T15:31:16.443Z,83.35
2023-04-29T15:33:43.736Z,85.67
2023-04-29T15:36:10.767Z,80.77
2023-04-29T15:38:37.694Z,85.33
2023-04-29T15:41:04.517Z,83.60
2023-04-29T15:43:32.914Z,87.11
2023-04-29T15:46:00.267Z,89.83
2023-04-29T15:48:27.309Z,89.44
2023-04-29T15:50:54.163Z,89.66
2023-04-29T15:53:21.182Z,93.88
2023-04-29T15:55:48.090Z,91.23
2023-04-29T15:58:14.893Z,89.31
2023-04-29T16:00:42.171Z,95.18
2023-04-29T16:03:08.992Z,91.21
2023-04-29T16:05:38.795Z,91.97
2023-04-29T16:08:06.702Z,90.25
2023-04-29T16:10:33.992Z,92.79
2023-04-29T16:13:09.423Z,89.81
2023-04-29T16:16:02.457Z,88.79
2023-04-29T16:18:29.403Z,91.13
2023-04-29T16:20:56.766Z,89.28
2023-04-29T16:23:24.047Z,89.60
2023-04-29T16:25:50.877Z,94.23
2023-04-29T16:28:17.901Z,93.13
2023-04-29T16:30:44.901Z,86.68
2023-04-29T16:33:11.673Z,85.26
2023-04-29T16:35:38.569Z,88.64
2023-04-29T16:38:07.621Z,85.94
2023-04-29T16:40:34.781Z,87.96
2023-04-29T16:43:01.567Z,88.59
2023-04-29T16:45:29.343Z,82.89
2023-04-29T16:47:58.313Z,81.13
2023-04-29T16:50:27.935Z,87.55
2023-04-29T16:52:54.764Z,83.70
2023-04-29T16:55:30.889Z,86.07
2023-04-29T16:57:58.612Z,82.78
2023-04-29T17:00:25.612Z,86.71
2023-04-29T17:02:53.021Z,85.85
2023-04-29T17:05:20.204Z,87.66
2023-04-29T17:07:47.355Z,84.78
2023-04-29T17:10:14.054Z,83.10
2023-04-29T17:12:40.884Z,82.60
2023-04-29T17:15:08.346Z,82.46
2023-04-29T17:17:35.223Z,84.91
2023-04-29T17:20:02.312Z,87.71
2023-04-29T17:22:29.136Z,86.02
2023-04-29T17:24:58.626Z,86.86
2023-04-29T17:27:25.652Z,87.54
2023-04-29T17:29:52.815Z,85.67
2023-04-29T17:32:28.154Z,86.53
2023-04-29T17:34:59.508Z,86.89
2023-04-29T17:37:26.639Z,86.27
2023-04-29T17:39:53.712Z,88.22
2023-04-29T17:42:23.569Z,88.69
2023-04-29T17:44:50.416Z,87.79
2023-04-29T17:47:17.589Z,88.29
2023-04-29T17:49:44.589Z,88.21
2023-04-29T17:52:11.918Z,89.39
2023-04-29T17:54:39.869Z,89.39
2023-04-29T17:57:06.774Z,90.71
2023-04-29T17:59:33.582Z,87.87
2023-04-29T18:02:00.365Z,89.73
2023-04-29T18:04:27.253Z,89.92
2023-04-29T18:06:54.046Z,87.76
2023-04-29T18:09:21.577Z,89.31
2023-04-29T18:11:49.225Z,88.97
2023-04-29T18:14:16.687Z,90.08
2023-04-29T18:16:43.662Z,91.98
2023-04-29T18:19:10.562Z,90.97
2023-04-29T18:21:37.691Z,92.26
2023-04-29T18:24:05.244Z,92.90
2023-04-29T18:26:32.080Z,91.59
2023-04-29T18:28:59.090Z,91.77
2023-04-29T18:31:27.449Z,92.25
2023-04-29T18:33:54.344Z,92.06
2023-04-29T18:36:21.884Z,95.39
2023-04-29T18:38:48.902Z,96.84
2023-04-29T18:41:15.684Z,97.84
2023-04-29T18:43:42.636Z,99.29
2023-04-29T18:46:09.707Z,100.00
2023-04-29T18:48:38.341Z,100.00
2023-04-29T18:51:06.365Z,100.00
2023-04-29T18:53:37.831Z,100.00
2023-04-29T18:56:05.112Z,100.00
2023-04-29T18:58:31.960Z,100.00
2023-04-29T19:01:00.115Z,100.00
2023-04-29T19:03:27.280Z,100.00
2023-04-29T19:05:54.273Z,100.00
2023-04-29T19:08:21.258Z,100.00
2023-04-29T19:10:48.151Z,100.00
2023-04-29T19:13:14.884Z,100.00
2023-04-29T19:15:41.746Z,100.00
2023-04-29T19:18:08.480Z,100.00
2023-04-29T19:20:35.328Z,100.00
2023-04-29T19:23:02.249Z,100.00
2023-04-29T19:25:29.031Z,100.00
2023-04-29T19:27:56.192Z,100.00
2023-04-29T19:30:22.994Z,100.00
2023-04-29T19:32:49.813Z,100.00
2023-04-29T19:35:16.782Z,100.00
2023-04-29T19:37:44.262Z,100.00
2023-04-29T19:40:11.417Z,100.00
2023-04-29T19:42:39.333Z,100.00
2023-04-29T19:45:07.767Z,100.00
2023-04-29T19:47:35.027Z,100.00
2023-04-29T19:50:02.384Z,100.00
2023-04-29T19:52:29.872Z,100.00
2023-04-29T19:54:56.968Z,100.00
2023-04-29T19:57:23.980Z,100.00
2023-04-29T19:59:50.920Z,100.00
2023-04-29T20:02:17.728Z,100.00
2023-04-29T20:04:44.556Z,100.00
2023-04-29T20:07:11.496Z,100.00
2023-04-29T20:09:38.354Z,100.00
2023-04-29T20:12:05.337Z,100.00
2023-04-29T20:14:32.965Z,100.00
2023-04-29T20:17:00.655Z,100.00
2023-04-29T20:19:27.751Z,100.00
2023-04-29T20:21:54.627Z,100.00
2023-04-29T20:24:21.664Z,100.00
2023-04-29T20:26:48.535Z,100.00
2023-04-29T20:29:15.275Z,100.00
2023-04-29T20:31:42.211Z,100.00
2023-04-29T20:34:08.941Z,100.00
2023-04-29T20:36:35.670Z,100.00
2023-04-29T20:39:02.555Z,100.00
2023-04-29T20:41:29.424Z,100.00
2023-04-29T20:43:56.606Z,100.00
2023-04-29T20:46:27.307Z,100.00
2023-04-29T20:48:54.154Z,100.00
2023-04-29T20:51:21.081Z,100.00
2023-04-29T20:53:48.481Z,100.00
2023-04-29T20:56:16.211Z,100.00
2023-04-29T20:58:42.984Z,100.00
2023-04-29T21:01:19.855Z,100.00
2023-04-29T21:03:46.755Z,100.00
2023-04-29T21:06:13.831Z,100.00
2023-04-29T21:08:40.855Z,100.00
2023-04-29T21:11:10.184Z,100.00
2023-04-29T21:13:37.626Z,100.00
2023-04-29T21:16:04.629Z,100.00
2023-04-29T21:18:31.420Z,100.00
2023-04-29T21:20:58.058Z,100.00
2023-04-29T21:23:24.936Z,100.00
2023-04-29T21:25:51.758Z,100.00
2023-04-29T21:28:18.764Z,100.00
2023-04-29T21:30:45.508Z,100.00
2023-04-29T21:33:12.328Z,100.00
2023-04-29T21:35:42.171Z,100.00
2023-04-29T21:38:11.908Z,100.00
2023-04-29T21:40:41.605Z,100.00
2023-04-29T21:43:10.027Z,100.00
2023-04-29T21:45:36.780Z,100.00
2023-04-29T21:48:17.626Z,100.00
2023-04-29T21:50:47.705Z,100.00
2023-04-29T21:53:16.366Z,100.00
2023-04-29T21:55:43.442Z,100.00
2023-04-29T21:58:11.079Z,100.00
2023-04-29T22:00:40.636Z,100.00
2023-04-29T22:03:11.350Z,100.00
2023-04-29T22:05:39.765Z,100.00
2023-04-29T22:08:07.632Z,100.00
2023-04-29T22:10:34.945Z,100.00
2023-04-29T22:13:01.938Z,100.00
2023-04-29T22:15:29.663Z,100.00
2023-04-29T22:17:57.872Z,100.00
2023-04-29T22:20:25.169Z,100.00
2023-04-29T22:22:52.292Z,100.00
2023-04-29T22:25:22.138Z,100.00
2023-04-29T22:27:51.841Z,100.00
2023-04-29T22:30:22.021Z,100.00
2023-04-29T22:32:49.047Z,100.00
2023-04-29T22:35:16.249Z,100.00
2023-04-29T22:37:43.022Z,100.00
2023-04-29T22:40:10.569Z,100.00
2023-04-29T22:42:37.528Z,100.00
2023-04-29T22:45:04.606Z,100.00
2023-04-29T22:47:32.154Z,100.00
2023-04-29T22:49:58.954Z,100.00
2023-04-29T22:52:27.494Z,100.00
2023-04-29T22:54:54.569Z,100.00
2023-04-29T22:57:21.405Z,100.00
2023-04-29T22:59:49.308Z,100.00
2023-04-29T23:02:16.313Z,100.00
2023-04-29T23:04:43.005Z,100.00
2023-04-29T23:07:09.937Z,100.00
2023-04-29T23:09:37.080Z,100.00
2023-04-29T23:12:04.077Z,100.00
2023-04-29T23:14:31.236Z,100.00
2023-04-29T23:16:58.113Z,100.00
2023-04-29T23:19:24.875Z,100.00
2023-04-29T23:21:51.586Z,100.00
2023-04-29T23:24:18.394Z,100.00
2023-04-29T23:26:45.150Z,100.00
2023-04-29T23:29:12.001Z,100.00
2023-04-29T23:31:38.870Z,100.00
2023-04-29T23:34:05.623Z,100.00
2023-04-29T23:36:32.599Z,100.00
2023-04-29T23:38:59.506Z,100.00
2023-04-29T23:41:26.322Z,100.00
2023-04-29T23:43:53.058Z,100.00
2023-04-29T23:46:20.054Z,100.00
2023-04-29T23:48:46.749Z,100.00
2023-04-29T23:51:13.873Z,100.00
2023-04-29T23:53:40.736Z,100.00
2023-04-29T23:56:07.679Z,100.00
2023-04-29T23:58:34.504Z,100.00
